Data for 06/02/2005

Time Sea-Level Adjusted Pressure Absolute Pressure Temperature Relative Humidity Dew Point   
(mb) (inHg) (mb) (inHg) (C) (F) (%) (C) (F)
00:05 1013 29.91 842 24.86 6.3 43.3 88 4.4 39.9
00:10 1013 29.91 842 24.86 6.3 43.4 88 4.5 40.1
00:15 1013 29.91 842 24.86 6 42.8 92 4.7 40.5
00:20 1013 29.91 842 24.86 5.7 42.2 92 4.4 39.9
00:25 1013 29.91 842 24.86 5.5 41.9 91 4.1 39.5
00:30 1013 29.91 842 24.86 5.5 41.8 91 4.1 39.4
00:35 1013 29.91 842 24.86 5.6 42 91 4.2 39.6
00:40 1013 29.91 842 24.86 5.5 42 91 4.3 39.7
00:45 1013 29.91 842 24.86 5.5 42 91 4.3 39.7
00:50 1013 29.91 842 24.86 5.6 42 92 4.4 39.9
00:55 1013 29.91 842 24.86 5.6 42.1 92 4.5 40
01:00 1013 29.91 842 24.86 5.6 42.1 92 4.4 39.9
01:05 1013 29.91 842 24.86 5.6 42.1 91 4.3 39.7
01:10 1013 29.91 842 24.86 5.5 41.9 92 4.4 39.9
01:15 1013 29.91 842 24.86 5.5 41.9 93 4.5 40.1
01:20 1013 29.91 842 24.86 5.6 42.1 92 4.4 39.9
01:25 1013 29.91 842 24.86 5.7 42.3 91 4.3 39.8
01:30 1013 29.91 842 24.86 5.8 42.4 92 4.6 40.3
01:35 1013 29.91 842 24.86 5.7 42.3 93 4.7 40.4
01:40 1013 29.91 842 24.86 5.8 42.4 93 4.8 40.6
01:45 1013 29.91 842 24.86 5.8 42.4 93 4.7 40.5
01:50 1013 29.91 842 24.86 5.8 42.5 92 4.6 40.3
01:55 1013 29.91 842 24.86 5.8 42.4 91 4.5 40
02:00 1013 29.91 842 24.86 5.8 42.4 90 4.4 39.8
02:05 1013 29.91 842 24.86 5.8 42.4 91 4.4 39.9
02:10 1013 29.91 842 24.86 5.8 42.4 90 4.3 39.7
02:15 1013 29.91 842 24.86 5.8 42.5 90 4.3 39.8
02:20 1013 29.91 842 24.86 5.8 42.4 90 4.3 39.7
02:25 1013 29.91 842 24.86 5.8 42.5 91 4.5 40.2
02:30 1013 29.91 842 24.86 5.8 42.4 93 4.7 40.5
02:35 1013 29.91 842 24.86 5.6 42.1 94 4.6 40.3
02:40 1013 29.91 842 24.86 5.4 41.7 94 4.5 40.1
02:45 1012 29.88 842 24.86 5.3 41.5 94 4.4 39.9
02:50 1012 29.88 842 24.86 5.3 41.5 95 4.5 40.1
02:55 1012 29.88 842 24.86 5.3 41.5 93 4.2 39.6
03:00 1013 29.91 842 24.86 5.4 41.7 92 4.2 39.6
03:05 1012 29.88 842 24.86 5.5 41.8 93 4.4 39.9
03:10 1012 29.88 842 24.86 5.5 42 92 4.4 39.8
03:15 1012 29.88 842 24.86 5.7 42.2 91 4.4 39.9
03:20 1012 29.88 842 24.86 5.6 42.2 92 4.4 39.9
03:25 1012 29.88 842 24.86 5.6 42.2 91 4.3 39.7
03:30 1012 29.88 842 24.86 5.7 42.2 91 4.4 39.9
03:35 1012 29.88 842 24.86 5.7 42.3 91 4.3 39.8
03:40 1012 29.88 842 24.86 5.8 42.4 91 4.4 39.9
03:45 1012 29.88 842 24.86 5.8 42.4 90 4.3 39.8
03:50 1012 29.88 842 24.86 5.8 42.5 89 4.2 39.6
03:55 1012 29.88 841 24.83 5.9 42.6 90 4.3 39.8
04:00 1012 29.88 841 24.83 5.9 42.7 90 4.4 39.8
04:05 1012 29.88 841 24.83 5.9 42.7 90 4.4 39.9
04:10 1012 29.88 841 24.83 6 42.8 89 4.4 39.8
04:15 1012 29.88 841 24.83 6 42.8 90 4.4 39.9
04:20 1012 29.88 841 24.83 6 42.8 89 4.3 39.7
04:25 1012 29.88 841 24.83 6 42.8 90 4.5 40.1
04:30 1012 29.88 841 24.83 6 42.8 89 4.2 39.6
04:35 1012 29.88 841 24.83 6 42.8 87 4 39.3
04:40 1012 29.88 841 24.83 6 42.8 88 4.1 39.4
04:45 1012 29.88 841 24.83 6.1 43 85 3.8 38.8
04:50 1012 29.88 841 24.83 6.2 43.1 87 4.2 39.6
04:55 1012 29.88 841 24.83 6.1 42.9 87 4.1 39.3
05:00 1012 29.88 841 24.83 6 42.8 88 4.2 39.6
05:05 1012 29.88 841 24.83 6 42.8 88 4.1 39.5
05:10 1012 29.88 841 24.83 6 42.8 87 4 39.3
05:15 1012 29.88 841 24.83 6 42.8 86 3.8 38.8
05:20 1012 29.88 841 24.83 6 42.8 86 3.8 38.8
05:25 1012 29.88 841 24.83 6.1 42.9 85 3.8 38.8
05:30 1012 29.88 841 24.83 6.1 43.1 85 3.8 38.9
05:35 1012 29.88 841 24.83 6.1 42.9 86 3.8 38.9
05:40 1012 29.88 841 24.83 6.1 43 85 3.8 38.8
05:45 1012 29.88 841 24.83 6.2 43.1 85 3.8 38.8
05:50 1012 29.88 841 24.83 6.2 43.1 84 3.8 38.8
05:55 1012 29.88 841 24.83 6.2 43.2 83 3.6 38.4
06:00 1012 29.88 841 24.83 6.3 43.3 83 3.6 38.5
06:05 1012 29.88 841 24.83 6.2 43.2 83 3.5 38.4
06:10 1012 29.88 841 24.83 6.2 43.2 83 3.5 38.4
06:15 1012 29.88 841 24.83 6.3 43.3 83 3.6 38.5
06:20 1012 29.88 841 24.83 6.3 43.3 83 3.6 38.5
06:25 1012 29.88 841 24.83 6.3 43.3 83 3.6 38.6
06:30 1012 29.88 841 24.83 6.3 43.3 82 3.5 38.2
06:35 1012 29.88 841 24.83 6.4 43.5 82 3.5 38.3
06:40 1012 29.88 841 24.83 6.3 43.4 83 3.6 38.5
06:45 1012 29.88 841 24.83 6.4 43.5 81 3.4 38.2
06:50 1012 29.88 841 24.83 6.4 43.5 82 3.6 38.5
06:55 1012 29.88 841 24.83 6.4 43.6 82 3.6 38.5
07:00 1012 29.88 841 24.83 6.4 43.6 83 3.8 38.9
07:05 1012 29.88 841 24.83 6.4 43.6 81 3.4 38.1
07:10 1012 29.88 841 24.83 6.5 43.7 81 3.6 38.4
07:15 1012 29.88 841 24.83 6.6 43.9 80 3.5 38.2
07:20 1012 29.88 841 24.83 6.6 43.9 81 3.6 38.5
07:25 1012 29.88 841 24.83 6.7 44.1 81 3.7 38.6
07:30 1012 29.88 841 24.83 6.8 44.3 79 3.5 38.2
07:35 1012 29.88 841 24.83 6.9 44.3 79 3.5 38.3
07:40 1012 29.88 841 24.83 6.9 44.5 79 3.6 38.5
07:45 1012 29.88 841 24.83 7.1 44.7 79 3.7 38.7
07:50 1012 29.88 841 24.83 7.1 44.7 80 3.8 38.8
07:55 1012 29.88 841 24.83 7.2 44.9 79 3.8 38.9
08:00 1012 29.88 841 24.83 7.2 44.9 80 4 39.3
08:05 1012 29.88 841 24.83 7.3 45.1 79 3.9 39
08:10 1012 29.88 841 24.83 7.3 45.1 79 3.8 38.9
08:15 1012 29.88 841 24.83 7.3 45.1 79 3.9 39.1
08:20 1012 29.88 841 24.83 7.4 45.3 78 3.9 39
08:25 1012 29.88 841 24.83 7.4 45.4 77 3.6 38.5
08:30 1012 29.88 841 24.83 7.5 45.5 77 3.8 38.8
08:35 1012 29.88 841 24.83 7.6 45.7 77 3.8 38.9
08:40 1012 29.88 841 24.83 7.8 46.1 77 4 39.1
08:45 1012 29.88 841 24.83 8 46.4 74 3.6 38.5
08:50 1012 29.88 841 24.83 8.1 46.5 74 3.7 38.7
08:55 1012 29.88 841 24.83 8.2 46.7 74 3.8 38.9
09:00 1012 29.88 841 24.83 8.2 46.7 70 3.1 37.6
09:05 1012 29.88 841 24.83 8.3 46.9 70 3.1 37.7
09:10 1012 29.88 841 24.83 8.5 47.2 70 3.3 37.9
09:15 1012 29.88 841 24.83 8.7 47.6 68 3 37.5
09:20 1011 29.85 841 24.83 8.8 47.8 67 3 37.4
09:25 1011 29.85 841 24.83 8.7 47.7 69 3.4 38.1
09:30 1011 29.85 841 24.83 8.7 47.7 69 3.4 38
09:35 1011 29.85 841 24.83 8.8 47.9 71 3.8 38.8
09:40 1011 29.85 841 24.83 9.1 48.3 69 3.7 38.7
09:45 1011 29.85 840 24.81 9.2 48.6 69 3.9 39
09:50 1011 29.85 840 24.81 9.5 49.1 67 3.6 38.5
09:55 1011 29.85 840 24.81 9.6 49.3 68 3.9 39.1
10:00 1011 29.85 840 24.81 9.7 49.4 66 3.8 38.8
10:05 1011 29.85 840 24.81 9.6 49.3 68 3.9 39.1
10:10 1011 29.85 840 24.81 9.6 49.3 65 3.4 38.1
10:15 1011 29.85 840 24.81 9.6 49.2 65 3.5 38.2
10:20 1011 29.85 840 24.81 9.7 49.4 65 3.5 38.4
10:25 1011 29.85 840 24.81 9.8 49.7 65 3.6 38.4
10:30 1011 29.85 840 24.81 9.9 49.7 64 3.3 38
10:35 1011 29.85 840 24.81 9.9 49.8 64 3.4 38.2
10:40 1011 29.85 840 24.81 10.1 50.1 61 3 37.3
10:45 1011 29.85 840 24.81 10.2 50.4 60 2.9 37.2
10:50 1011 29.85 840 24.81 10.2 50.4 58 2.5 36.4
10:55 1011 29.85 840 24.81 10.3 50.6 58 2.6 36.6
11:00 1011 29.85 840 24.81 10.2 50.3 62 3.2 37.7
11:05 1011 29.85 840 24.81 10.2 50.3 63 3.4 38.1
11:10 1011 29.85 840 24.81 10.1 50.2 63 3.5 38.3
11:15 1011 29.85 840 24.81 10 50 64 3.6 38.5
11:20 1011 29.85 840 24.81 10.1 50.1 65 3.8 38.8
11:25 1011 29.85 840 24.81 10 50 62 3.2 37.7
11:30 1011 29.85 840 24.81 9.9 49.8 65 3.7 38.7
11:35 1011 29.85 840 24.81 9.6 49.3 71 4.6 40.3
11:40 1011 29.85 840 24.81 9.5 49.2 72 4.7 40.5
11:45 1011 29.85 840 24.81 9.7 49.4 66 3.7 38.6
11:50 1011 29.85 840 24.81 9.3 48.7 66 3.4 38.1
11:55 1011 29.85 840 24.81 9.5 49.1 70 4.4 40
12:00 1011 29.85 840 24.81 9.3 48.8 74 5 41
12:05 1011 29.85 840 24.81 9 48.1 78 5.3 41.5
12:10 1011 29.85 840 24.81 9.2 48.5 78 5.6 42
12:15 1011 29.85 840 24.81 9.2 48.5 71 4.2 39.6
12:20 1011 29.85 840 24.81 9.4 49 68 4 39.1
12:25 1011 29.85 840 24.81 9.4 48.9 69 4.1 39.3
12:30 1011 29.85 840 24.81 9.3 48.8 69 4 39.3
12:35 1011 29.85 840 24.81 9.3 48.8 70 4.3 39.7
12:40 1011 29.85 840 24.81 9.4 48.8 67 3.6 38.4
12:45 1011 29.85 840 24.81 9.3 48.7 70 4 39.2
12:50 1011 29.85 840 24.81 9.2 48.5 69 3.8 38.8
12:55 1011 29.85 840 24.81 9.1 48.3 66 3.1 37.5
13:00 1011 29.85 840 24.81 9.2 48.6 69 3.8 38.8
13:05 1011 29.85 840 24.81 9.5 49 67 3.7 38.6
13:10 1011 29.85 840 24.81 9.6 49.3 68 4.1 39.4
13:15 1011 29.85 840 24.81 9.5 49 70 4.2 39.6
13:20 1011 29.85 840 24.81 9.4 48.8 73 4.7 40.5
13:25 1011 29.85 840 24.81 9.4 49 70 4.2 39.6
13:30 1011 29.85 840 24.81 9.6 49.2 67 3.7 38.7
13:35 1011 29.85 840 24.81 9.6 49.2 66 3.5 38.3
13:40 1011 29.85 840 24.81 9.6 49.2 69 4.2 39.6
13:45 1011 29.85 840 24.81 9.6 49.4 69 4.2 39.5
13:50 1011 29.85 840 24.81 9.4 48.8 71 4.3 39.8
13:55 1011 29.85 840 24.81 9.1 48.4 73 4.6 40.2
14:00 1011 29.85 840 24.81 8.9 48.1 74 4.6 40.3
14:05 1011 29.85 840 24.81 8.6 47.4 74 4.3 39.7
14:10 1011 29.85 840 24.81 8.7 47.6 74 4.3 39.7
14:15 1011 29.85 840 24.81 9.2 48.5 76 5.2 41.4
14:20 1011 29.85 840 24.81 9.8 49.6 74 5.3 41.5
14:25 1011 29.85 840 24.81 9.9 49.8 71 5 40.9
14:30 1011 29.85 840 24.81 9.7 49.5 73 5.1 41.2
14:35 1011 29.85 840 24.81 9.7 49.4 74 5.2 41.4
14:40 1011 29.85 840 24.81 9.7 49.5 75 5.6 42.1
14:45 1011 29.85 840 24.81 9.6 49.2 72 4.7 40.5
14:50 1011 29.85 840 24.81 9.6 49.3 72 4.8 40.6
14:55 1011 29.85 840 24.81 9.8 49.7 72 5.1 41.1
15:00 1011 29.85 840 24.81 9.9 49.8 73 5.3 41.5
15:05 1011 29.85 840 24.81 9.6 49.3 81 6.5 43.7
15:10 1011 29.85 840 24.81 8.8 47.8 85 6.4 43.6
15:15 1011 29.85 840 24.81 8.5 47.3 86 6.3 43.4
15:20 1011 29.85 840 24.81 8.5 47.2 86 6.3 43.3
15:25 1011 29.85 840 24.81 8.6 47.4 85 6.1 43
15:30 1011 29.85 840 24.81 8.5 47.3 86 6.2 43.2
15:35 1011 29.85 840 24.81 8.6 47.5 85 6.2 43.2
15:40 1011 29.85 840 24.81 8.6 47.4 86 6.3 43.4
15:45 1011 29.85 840 24.81 8.6 47.4 86 6.3 43.4
15:50 1011 29.85 840 24.81 8.5 47.2 85 6.1 43
15:55 1011 29.85 840 24.81 8.6 47.5 85 6.2 43.2
16:00 1011 29.85 840 24.81 8.7 47.6 85 6.3 43.3
16:05 1011 29.85 840 24.81 8.7 47.7 84 6.2 43.2
16:10 1011 29.85 840 24.81 8.7 47.6 85 6.3 43.3
16:15 1011 29.85 840 24.81 8.7 47.7 85 6.3 43.4
16:20 1011 29.85 840 24.81 9 48.1 83 6.3 43.4
16:25 1011 29.85 840 24.81 9.1 48.4 82 6.3 43.3
16:30 1011 29.85 840 24.81 9.4 48.9 79 6 42.9
16:35 1011 29.85 840 24.81 9.6 49.2 73 4.9 40.8
16:40 1011 29.85 840 24.81 9.5 49.1 75 5.3 41.5
16:45 1011 29.85 840 24.81 9.3 48.7 75 5 41.1
16:50 1011 29.85 840 24.81 9.1 48.5 76 5.1 41.2
16:55 1011 29.85 840 24.81 9.2 48.5 78 5.5 41.9
17:00 1011 29.85 840 24.81 8.8 47.9 86 6.6 43.9
17:05 1011 29.85 840 24.81 8.5 47.3 89 6.7 44.1
17:10 1011 29.85 840 24.81 8.5 47.3 87 6.5 43.6
17:15 1011 29.85 840 24.81 8.5 47.3 88 6.7 44
17:20 1011 29.85 840 24.81 8.6 47.5 86 6.4 43.5
17:25 1011 29.85 840 24.81 8.5 47.2 86 6.3 43.3
17:30 1011 29.85 840 24.81 8.5 47.2 86 6.3 43.3
17:35 1011 29.85 840 24.81 8.5 47.4 86 6.3 43.3
17:40 1011 29.85 840 24.81 8.9 47.9 84 6.3 43.4
17:45 1011 29.85 840 24.81 9 48.2 84 6.4 43.5
17:50 1011 29.85 840 24.81 9 48.2 83 6.3 43.3
17:55 1011 29.85 840 24.81 9.1 48.3 82 6.1 43
18:00 1011 29.85 840 24.81 9.3 48.7 79 5.9 42.6
18:05 1011 29.85 840 24.81 9.3 48.8 77 5.5 41.9
18:10 1011 29.85 840 24.81 9.2 48.6 75 5 41.1
18:15 1011 29.85 840 24.81 9 48.3 78 5.5 41.8
18:20 1011 29.85 840 24.81 9.1 48.4 78 5.5 41.8
18:25 1011 29.85 840 24.81 9 48.2 79 5.5 42
18:30 1011 29.85 840 24.81 8.9 48 79 5.5 41.9
18:35 1011 29.85 840 24.81 8.9 48 77 5.1 41.2
18:40 1011 29.85 840 24.81 8.8 47.8 78 5.2 41.3
18:45 1011 29.85 840 24.81 8.6 47.5 80 5.4 41.7
18:50 1011 29.85 840 24.81 8.7 47.6 80 5.4 41.7
18:55 1011 29.85 840 24.81 8.7 47.7 80 5.5 41.8
19:00 1011 29.85 840 24.81 8.8 47.9 78 5.2 41.4
19:05 1011 29.85 840 24.81 8.8 47.9 77 5.1 41.2
19:10 1011 29.85 840 24.81 8.9 47.9 78 5.2 41.3
19:15 1011 29.85 840 24.81 8.9 48 79 5.4 41.8
19:20 1011 29.85 840 24.81 8.9 47.9 82 6 42.7
19:25 1011 29.85 840 24.81 8.5 47.4 82 5.7 42.3
19:30 1011 29.85 840 24.81 8.1 46.6 82 5.2 41.4
19:35 1011 29.85 840 24.81 8.1 46.6 84 5.6 42.1
19:40 1011 29.85 840 24.81 8.1 46.5 86 5.8 42.4
19:45 1011 29.85 840 24.81 7.9 46.3 86 5.7 42.2
19:50 1011 29.85 840 24.81 8 46.4 83 5.4 41.7
19:55 1011 29.85 840 24.81 8.2 46.7 84 5.7 42.3
20:00 1011 29.85 840 24.81 8.1 46.7 84 5.6 42.1
20:05 1011 29.85 840 24.81 8 46.4 85 5.6 42.1
20:10 1011 29.85 840 24.81 7.8 46.1 85 5.5 41.9
20:15 1011 29.85 840 24.81 7.6 45.7 85 5.2 41.4
20:20 1011 29.85 840 24.81 7.7 45.8 83 5 40.9
20:25 1011 29.85 840 24.81 7.7 45.9 84 5.3 41.5
20:30 1011 29.85 840 24.81 7.8 46 83 5.1 41.3
20:35 1011 29.85 840 24.81 7.8 46 82 4.9 40.8
20:40 1011 29.85 840 24.81 7.9 46.2 81 4.9 40.8
20:45 1011 29.85 840 24.81 8 46.3 81 4.9 40.8
20:50 1011 29.85 840 24.81 8 46.4 82 5.1 41.3
20:55 1011 29.85 840 24.81 8 46.4 82 5.1 41.1
21:00 1011 29.85 840 24.81 8 46.4 85 5.6 42
21:05 1011 29.85 840 24.81 7.8 46 86 5.6 42.1
21:10 1011 29.85 840 24.81 7.7 45.9 85 5.3 41.5
21:15 1011 29.85 840 24.81 7.8 46 83 5.1 41.2
21:20 1011 29.85 840 24.81 7.8 46 81 4.8 40.7
21:25 1011 29.85 840 24.81 7.9 46.1 84 5.3 41.5
21:30 1011 29.85 840 24.81 7.8 46.1 83 5.1 41.2
21:35 1011 29.85 840 24.81 7.6 45.6 83 4.9 40.8
21:40 1011 29.85 840 24.81 7.5 45.5 84 4.9 40.9
21:45 1011 29.85 840 24.81 7.5 45.5 80 4.4 39.9
21:50 1011 29.85 840 24.81 7.6 45.7 81 4.6 40.3
21:55 1011 29.85 840 24.81 7.6 45.8 81 4.5 40.1
22:00 1011 29.85 840 24.81 7.7 45.8 79 4.4 39.9
22:05 1011 29.85 840 24.81 7.8 46.1 80 4.5 40.2
22:10 1011 29.85 840 24.81 7.9 46.3 79 4.6 40.3
22:15 1011 29.85 840 24.81 7.9 46.3 80 4.7 40.5
22:20 1011 29.85 840 24.81 7.9 46.3 80 4.8 40.6
22:25 1011 29.85 840 24.81 7.9 46.2 82 4.9 40.9
22:30 1011 29.85 840 24.81 7.8 46.1 83 5 41.1
22:35 1011 29.85 840 24.81 7.7 45.9 83 5 41.1
22:40 1011 29.85 840 24.81 7.7 45.8 81 4.7 40.5
22:45 1011 29.85 840 24.81 7.7 45.8 82 4.8 40.6
22:50 1011 29.85 840 24.81 7.6 45.7 82 4.8 40.6
22:55 1011 29.85 840 24.81 7.6 45.7 83 4.9 40.7
23:00 1011 29.85 840 24.81 7.6 45.7 83 4.8 40.7
23:05 1011 29.85 840 24.81 7.7 45.8 83 5 40.9
23:10 1011 29.85 840 24.81 7.8 46 83 5.1 41.1
23:15 1011 29.85 840 24.81 7.7 45.9 82 4.9 40.7
23:20 1011 29.85 840 24.81 7.7 45.9 81 4.8 40.6
23:25 1011 29.85 840 24.81 7.8 46.1 81 4.8 40.6
23:30 1011 29.85 840 24.81 7.8 46 83 5 41
23:35 1011 29.85 840 24.81 7.6 45.7 85 5.2 41.3
23:40 1011 29.85 840 24.81 7.6 45.6 87 5.5 42
23:45 1011 29.85 840 24.81 7.3 45.2 88 5.5 42
23:50 1011 29.85 840 24.81 7.2 44.9 89 5.5 41.9
23:55 1011 29.85 840 24.81 7 44.6 90 5.5 42
24:00 1011 29.85 840 24.81 6.9 44.4 91 5.5 41.8